Beringovskiy, Russia
Current Conditions -  °F | °C
As of 4:00 PM on Thursday 23 Oct 2014 (Local Time) from UHMA Reporting Station
Rain Showers Rain Showers  
Wind Chill: 20°   Ceiling: 8000
Heat Index: 36°   Visibility: 4mi
Dew Point: 30°   Wind: 47mph
Humidity: 81%   Direction: 110°ESE
Pressure: 29.29"   Gusts: 58mph
Location:  63.05°N, 179.32°E
Report Text: UHMA 230400Z 11021G26MPS 7000 -SHRA FEW010 SCT020CB OVC08002/M01 Q0992 TEMPO 2000 SHRASN RMK QFE740/0987 MT OBSC 883///47
Loading
Personal Weather Stations






























Interactive Weather Map
Tropical Storm Tracking
New forecast layout! Learn more

10-Day Weather Forecast

Advertisements
Track Severe Weather on mobile